sensor_id;sensor_type;location;lat;lon;timestamp;P1;durP1;ratioP1;P2;durP2;ratioP2
7142;SDS011;3613;48.902;9.204;2023-09-12T00:00:04;23.00;;;14.60;;
7142;SDS011;3613;48.902;9.204;2023-09-12T00:02:33;18.40;;;15.60;;
7142;SDS011;3613;48.902;9.204;2023-09-12T00:04:58;21.13;;;14.43;;
7142;SDS011;3613;48.902;9.204;2023-09-12T00:07:24;26.33;;;15.13;;
7142;SDS011;3613;48.902;9.204;2023-09-12T00:09:49;18.63;;;14.77;;
7142;SDS011;3613;48.902;9.204;2023-09-12T00:12:17;18.87;;;14.57;;
7142;SDS011;3613;48.902;9.204;2023-09-12T00:14:47;19.43;;;14.67;;
7142;SDS011;3613;48.902;9.204;2023-09-12T00:17:17;21.90;;;15.43;;
7142;SDS011;3613;48.902;9.204;2023-09-12T00:19:43;18.50;;;14.77;;
7142;SDS011;3613;48.902;9.204;2023-09-12T00:22:13;18.67;;;14.33;;
7142;SDS011;3613;48.902;9.204;2023-09-12T00:24:39;18.77;;;13.60;;
7142;SDS011;3613;48.902;9.204;2023-09-12T00:27:05;20.50;;;15.23;;
7142;SDS011;3613;48.902;9.204;2023-09-12T00:29:30;18.00;;;13.37;;
7142;SDS011;3613;48.902;9.204;2023-09-12T00:31:57;21.07;;;15.23;;
7142;SDS011;3613;48.902;9.204;2023-09-12T00:34:25;21.70;;;14.50;;
7142;SDS011;3613;48.902;9.204;2023-09-12T00:36:53;19.07;;;15.20;;
7142;SDS011;3613;48.902;9.204;2023-09-12T00:39:21;19.57;;;14.20;;
7142;SDS011;3613;48.902;9.204;2023-09-12T00:41:48;21.13;;;15.27;;
7142;SDS011;3613;48.902;9.204;2023-09-12T00:44:16;19.87;;;14.43;;
7142;SDS011;3613;48.902;9.204;2023-09-12T00:46:41;15.50;;;13.43;;
7142;SDS011;3613;48.902;9.204;2023-09-12T00:49:11;19.53;;;14.13;;
7142;SDS011;3613;48.902;9.204;2023-09-12T00:51:38;19.43;;;13.90;;
7142;SDS011;3613;48.902;9.204;2023-09-12T00:54:04;17.80;;;14.87;;
7142;SDS011;3613;48.902;9.204;2023-09-12T00:56:34;19.53;;;14.90;;
7142;SDS011;3613;48.902;9.204;2023-09-12T00:59:01;19.03;;;14.60;;
7142;SDS011;3613;48.902;9.204;2023-09-12T01:01:29;17.57;;;14.83;;
7142;SDS011;3613;48.902;9.204;2023-09-12T01:03:59;18.13;;;14.33;;
7142;SDS011;3613;48.902;9.204;2023-09-12T01:06:26;17.97;;;13.10;;
7142;SDS011;3613;48.902;9.204;2023-09-12T01:08:57;17.07;;;13.50;;
7142;SDS011;3613;48.902;9.204;2023-09-12T01:11:23;20.17;;;14.20;;
7142;SDS011;3613;48.902;9.204;2023-09-12T01:13:49;19.77;;;15.30;;
7142;SDS011;3613;48.902;9.204;2023-09-12T01:16:15;17.97;;;14.07;;
7142;SDS011;3613;48.902;9.204;2023-09-12T01:18:40;16.97;;;13.80;;
7142;SDS011;3613;48.902;9.204;2023-09-12T01:24:16;19.50;;;14.43;;
7142;SDS011;3613;48.902;9.204;2023-09-12T01:27:18;20.90;;;14.53;;
7142;SDS011;3613;48.902;9.204;2023-09-12T01:29:58;20.07;;;15.37;;
7142;SDS011;3613;48.902;9.204;2023-09-12T01:32:26;20.33;;;14.60;;
7142;SDS011;3613;48.902;9.204;2023-09-12T01:34:56;19.97;;;15.03;;
7142;SDS011;3613;48.902;9.204;2023-09-12T01:37:22;21.80;;;13.97;;
7142;SDS011;3613;48.902;9.204;2023-09-12T01:39:51;17.73;;;14.30;;
7142;SDS011;3613;48.902;9.204;2023-09-12T01:42:17;20.10;;;14.77;;
7142;SDS011;3613;48.902;9.204;2023-09-12T01:44:46;21.33;;;14.93;;
7142;SDS011;3613;48.902;9.204;2023-09-12T01:47:14;22.60;;;15.17;;
7142;SDS011;3613;48.902;9.204;2023-09-12T01:49:42;20.80;;;14.10;;
7142;SDS011;3613;48.902;9.204;2023-09-12T01:52:10;24.93;;;15.47;;
7142;SDS011;3613;48.902;9.204;2023-09-12T01:54:36;19.57;;;14.60;;
7142;SDS011;3613;48.902;9.204;2023-09-12T01:57:03;21.73;;;15.23;;
7142;SDS011;3613;48.902;9.204;2023-09-12T01:59:29;21.43;;;14.73;;
7142;SDS011;3613;48.902;9.204;2023-09-12T02:01:55;21.00;;;14.53;;
7142;SDS011;3613;48.902;9.204;2023-09-12T02:04:20;22.20;;;15.10;;
7142;SDS011;3613;48.902;9.204;2023-09-12T02:06:49;24.07;;;15.37;;
7142;SDS011;3613;48.902;9.204;2023-09-12T02:09:14;21.20;;;15.03;;
7142;SDS011;3613;48.902;9.204;2023-09-12T02:11:42;19.33;;;15.63;;
7142;SDS011;3613;48.902;9.204;2023-09-12T02:14:10;18.70;;;14.73;;
7142;SDS011;3613;48.902;9.204;2023-09-12T02:16:38;21.60;;;15.77;;
7142;SDS011;3613;48.902;9.204;2023-09-12T02:19:07;19.77;;;15.90;;
7142;SDS011;3613;48.902;9.204;2023-09-12T02:21:35;20.03;;;15.13;;
7142;SDS011;3613;48.902;9.204;2023-09-12T02:24:00;25.03;;;15.53;;
7142;SDS011;3613;48.902;9.204;2023-09-12T02:26:26;22.60;;;15.53;;
7142;SDS011;3613;48.902;9.204;2023-09-12T02:28:52;22.47;;;15.83;;
7142;SDS011;3613;48.902;9.204;2023-09-12T02:31:17;18.90;;;14.77;;
7142;SDS011;3613;48.902;9.204;2023-09-12T02:33:43;22.97;;;15.17;;
7142;SDS011;3613;48.902;9.204;2023-09-12T02:36:08;20.37;;;15.40;;
7142;SDS011;3613;48.902;9.204;2023-09-12T02:38:37;23.03;;;14.93;;
7142;SDS011;3613;48.902;9.204;2023-09-12T02:41:04;19.50;;;14.50;;
7142;SDS011;3613;48.902;9.204;2023-09-12T02:43:30;20.23;;;14.20;;
7142;SDS011;3613;48.902;9.204;2023-09-12T02:45:57;20.27;;;14.27;;
7142;SDS011;3613;48.902;9.204;2023-09-12T02:48:22;17.43;;;14.13;;
7142;SDS011;3613;48.902;9.204;2023-09-12T02:50:48;20.93;;;13.87;;
7142;SDS011;3613;48.902;9.204;2023-09-12T02:53:14;21.90;;;13.93;;
7142;SDS011;3613;48.902;9.204;2023-09-12T02:55:39;19.23;;;13.63;;
7142;SDS011;3613;48.902;9.204;2023-09-12T02:58:06;21.33;;;13.97;;
7142;SDS011;3613;48.902;9.204;2023-09-12T03:00:31;19.87;;;14.50;;
7142;SDS011;3613;48.902;9.204;2023-09-12T03:02:57;19.47;;;14.63;;
7142;SDS011;3613;48.902;9.204;2023-09-12T03:05:24;20.43;;;13.83;;
7142;SDS011;3613;48.902;9.204;2023-09-12T03:07:50;21.20;;;13.37;;
7142;SDS011;3613;48.902;9.204;2023-09-12T03:10:16;20.20;;;13.60;;
7142;SDS011;3613;48.902;9.204;2023-09-12T03:12:41;19.97;;;13.97;;
7142;SDS011;3613;48.902;9.204;2023-09-12T03:15:07;21.37;;;14.53;;
7142;SDS011;3613;48.902;9.204;2023-09-12T03:17:35;20.37;;;14.30;;
7142;SDS011;3613;48.902;9.204;2023-09-12T03:20:01;22.73;;;14.60;;
7142;SDS011;3613;48.902;9.204;2023-09-12T03:22:29;22.10;;;15.40;;
7142;SDS011;3613;48.902;9.204;2023-09-12T03:24:57;22.57;;;14.50;;
7142;SDS011;3613;48.902;9.204;2023-09-12T03:27:25;18.80;;;13.93;;
7142;SDS011;3613;48.902;9.204;2023-09-12T03:29:51;22.73;;;14.50;;
7142;SDS011;3613;48.902;9.204;2023-09-12T03:32:19;26.00;;;15.47;;
7142;SDS011;3613;48.902;9.204;2023-09-12T03:34:46;21.93;;;14.63;;
7142;SDS011;3613;48.902;9.204;2023-09-12T03:37:12;18.90;;;14.17;;
7142;SDS011;3613;48.902;9.204;2023-09-12T03:39:37;19.77;;;13.67;;
7142;SDS011;3613;48.902;9.204;2023-09-12T03:42:03;19.37;;;15.13;;
7142;SDS011;3613;48.902;9.204;2023-09-12T03:44:29;18.77;;;14.20;;
7142;SDS011;3613;48.902;9.204;2023-09-12T03:46:55;19.97;;;13.80;;
7142;SDS011;3613;48.902;9.204;2023-09-12T03:49:25;20.43;;;14.27;;
7142;SDS011;3613;48.902;9.204;2023-09-12T03:51:53;25.07;;;15.27;;
7142;SDS011;3613;48.902;9.204;2023-09-12T03:54:19;21.13;;;14.97;;
7142;SDS011;3613;48.902;9.204;2023-09-12T03:56:47;21.27;;;14.83;;
7142;SDS011;3613;48.902;9.204;2023-09-12T03:59:12;20.10;;;14.63;;
7142;SDS011;3613;48.902;9.204;2023-09-12T04:01:38;20.33;;;15.00;;
7142;SDS011;3613;48.902;9.204;2023-09-12T04:04:06;21.93;;;15.00;;
7142;SDS011;3613;48.902;9.204;2023-09-12T04:06:31;20.07;;;15.07;;
7142;SDS011;3613;48.902;9.204;2023-09-12T04:08:57;21.10;;;14.33;;
7142;SDS011;3613;48.902;9.204;2023-09-12T04:11:24;20.10;;;13.47;;
7142;SDS011;3613;48.902;9.204;2023-09-12T04:13:50;19.43;;;13.57;;
7142;SDS011;3613;48.902;9.204;2023-09-12T04:16:16;20.80;;;13.47;;
7142;SDS011;3613;48.902;9.204;2023-09-12T04:18:43;21.60;;;15.20;;
7142;SDS011;3613;48.902;9.204;2023-09-12T04:21:11;18.73;;;13.80;;
7142;SDS011;3613;48.902;9.204;2023-09-12T04:23:37;20.40;;;14.23;;
7142;SDS011;3613;48.902;9.204;2023-09-12T04:26:02;17.17;;;12.67;;
7142;SDS011;3613;48.902;9.204;2023-09-12T04:28:30;18.27;;;13.83;;
7142;SDS011;3613;48.902;9.204;2023-09-12T04:31:02;19.83;;;13.13;;
7142;SDS011;3613;48.902;9.204;2023-09-12T04:33:28;20.10;;;13.47;;
7142;SDS011;3613;48.902;9.204;2023-09-12T04:35:54;18.73;;;11.97;;
7142;SDS011;3613;48.902;9.204;2023-09-12T04:38:23;17.17;;;13.07;;
7142;SDS011;3613;48.902;9.204;2023-09-12T04:40:55;18.30;;;13.53;;
7142;SDS011;3613;48.902;9.204;2023-09-12T04:43:28;17.40;;;12.60;;
7142;SDS011;3613;48.902;9.204;2023-09-12T04:45:54;15.77;;;12.23;;
7142;SDS011;3613;48.902;9.204;2023-09-12T04:48:20;18.50;;;12.60;;
7142;SDS011;3613;48.902;9.204;2023-09-12T04:50:45;17.27;;;11.83;;
7142;SDS011;3613;48.902;9.204;2023-09-12T04:53:13;17.47;;;12.30;;
7142;SDS011;3613;48.902;9.204;2023-09-12T04:55:39;18.30;;;11.60;;
7142;SDS011;3613;48.902;9.204;2023-09-12T04:58:05;22.83;;;13.40;;
7142;SDS011;3613;48.902;9.204;2023-09-12T05:00:33;17.10;;;11.73;;
7142;SDS011;3613;48.902;9.204;2023-09-12T05:02:59;14.40;;;11.33;;
7142;SDS011;3613;48.902;9.204;2023-09-12T05:05:26;16.90;;;10.97;;
7142;SDS011;3613;48.902;9.204;2023-09-12T05:07:54;15.00;;;11.83;;
7142;SDS011;3613;48.902;9.204;2023-09-12T05:10:19;14.97;;;10.67;;
7142;SDS011;3613;48.902;9.204;2023-09-12T05:12:45;14.97;;;10.73;;
7142;SDS011;3613;48.902;9.204;2023-09-12T05:15:10;19.07;;;11.10;;
7142;SDS011;3613;48.902;9.204;2023-09-12T05:17:36;14.10;;;10.60;;
7142;SDS011;3613;48.902;9.204;2023-09-12T05:20:02;14.20;;;10.30;;
7142;SDS011;3613;48.902;9.204;2023-09-12T05:22:31;17.53;;;13.00;;
7142;SDS011;3613;48.902;9.204;2023-09-12T05:24:56;13.00;;;8.73;;
7142;SDS011;3613;48.902;9.204;2023-09-12T05:27:22;13.07;;;9.30;;
7142;SDS011;3613;48.902;9.204;2023-09-12T05:29:50;14.93;;;9.80;;
7142;SDS011;3613;48.902;9.204;2023-09-12T05:32:16;14.67;;;8.93;;
7142;SDS011;3613;48.902;9.204;2023-09-12T05:34:41;14.63;;;8.90;;
7142;SDS011;3613;48.902;9.204;2023-09-12T05:37:10;9.53;;;7.80;;
7142;SDS011;3613;48.902;9.204;2023-09-12T05:39:41;11.60;;;8.73;;
7142;SDS011;3613;48.902;9.204;2023-09-12T05:42:10;10.03;;;8.07;;
7142;SDS011;3613;48.902;9.204;2023-09-12T05:44:38;14.00;;;8.63;;
7142;SDS011;3613;48.902;9.204;2023-09-12T05:47:06;15.50;;;7.93;;
7142;SDS011;3613;48.902;9.204;2023-09-12T05:49:34;16.00;;;8.40;;
7142;SDS011;3613;48.902;9.204;2023-09-12T05:52:02;12.50;;;8.17;;
7142;SDS011;3613;48.902;9.204;2023-09-12T05:54:28;10.77;;;7.63;;
7142;SDS011;3613;48.902;9.204;2023-09-12T05:56:54;12.63;;;8.33;;
7142;SDS011;3613;48.902;9.204;2023-09-12T05:59:19;14.10;;;7.97;;
7142;SDS011;3613;48.902;9.204;2023-09-12T06:01:47;14.87;;;7.83;;
7142;SDS011;3613;48.902;9.204;2023-09-12T06:04:16;10.03;;;7.90;;
7142;SDS011;3613;48.902;9.204;2023-09-12T06:06:42;12.67;;;7.97;;
7142;SDS011;3613;48.902;9.204;2023-09-12T06:09:10;11.83;;;8.03;;
7142;SDS011;3613;48.902;9.204;2023-09-12T06:11:35;13.03;;;8.80;;
7142;SDS011;3613;48.902;9.204;2023-09-12T06:14:03;14.40;;;8.37;;
7142;SDS011;3613;48.902;9.204;2023-09-12T06:16:31;13.00;;;8.27;;
7142;SDS011;3613;48.902;9.204;2023-09-12T06:18:57;13.53;;;8.60;;
7142;SDS011;3613;48.902;9.204;2023-09-12T06:21:24;10.23;;;7.90;;
7142;SDS011;3613;48.902;9.204;2023-09-12T06:24:07;14.30;;;9.00;;
7142;SDS011;3613;48.902;9.204;2023-09-12T06:26:35;14.37;;;8.90;;
7142;SDS011;3613;48.902;9.204;2023-09-12T06:29:02;11.33;;;8.20;;
7142;SDS011;3613;48.902;9.204;2023-09-12T06:31:27;12.63;;;8.37;;
7142;SDS011;3613;48.902;9.204;2023-09-12T06:33:56;12.90;;;8.53;;
7142;SDS011;3613;48.902;9.204;2023-09-12T06:36:22;10.80;;;8.50;;
7142;SDS011;3613;48.902;9.204;2023-09-12T06:38:53;11.93;;;8.30;;
7142;SDS011;3613;48.902;9.204;2023-09-12T06:41:19;14.17;;;8.80;;
7142;SDS011;3613;48.902;9.204;2023-09-12T06:43:49;12.73;;;8.80;;
7142;SDS011;3613;48.902;9.204;2023-09-12T06:46:15;13.10;;;8.13;;
7142;SDS011;3613;48.902;9.204;2023-09-12T06:48:46;16.10;;;9.47;;
7142;SDS011;3613;48.902;9.204;2023-09-12T06:51:14;11.53;;;8.87;;
7142;SDS011;3613;48.902;9.204;2023-09-12T06:53:40;14.67;;;9.50;;
7142;SDS011;3613;48.902;9.204;2023-09-12T06:56:05;14.00;;;8.80;;
7142;SDS011;3613;48.902;9.204;2023-09-12T06:58:31;17.70;;;9.93;;
7142;SDS011;3613;48.902;9.204;2023-09-12T07:01:06;11.93;;;8.73;;
7142;SDS011;3613;48.902;9.204;2023-09-12T07:03:35;11.17;;;8.60;;
7142;SDS011;3613;48.902;9.204;2023-09-12T07:06:02;13.63;;;11.10;;
7142;SDS011;3613;48.902;9.204;2023-09-12T07:08:31;13.40;;;9.10;;
7142;SDS011;3613;48.902;9.204;2023-09-12T07:10:57;13.00;;;8.80;;
7142;SDS011;3613;48.902;9.204;2023-09-12T07:13:31;11.33;;;9.20;;
7142;SDS011;3613;48.902;9.204;2023-09-12T07:15:57;11.13;;;8.47;;
7142;SDS011;3613;48.902;9.204;2023-09-12T07:18:23;14.17;;;9.10;;
7142;SDS011;3613;48.902;9.204;2023-09-12T07:20:58;13.70;;;8.70;;
7142;SDS011;3613;48.902;9.204;2023-09-12T07:23:25;17.03;;;9.60;;
7142;SDS011;3613;48.902;9.204;2023-09-12T07:25:50;13.00;;;9.33;;
7142;SDS011;3613;48.902;9.204;2023-09-12T07:28:17;13.20;;;8.90;;
7142;SDS011;3613;48.902;9.204;2023-09-12T07:30:45;11.57;;;8.80;;
7142;SDS011;3613;48.902;9.204;2023-09-12T07:33:11;14.33;;;9.23;;
7142;SDS011;3613;48.902;9.204;2023-09-12T07:35:37;11.97;;;9.07;;
7142;SDS011;3613;48.902;9.204;2023-09-12T07:38:04;12.10;;;8.97;;
7142;SDS011;3613;48.902;9.204;2023-09-12T07:40:30;13.67;;;10.07;;
7142;SDS011;3613;48.902;9.204;2023-09-12T07:42:55;10.90;;;9.27;;
7142;SDS011;3613;48.902;9.204;2023-09-12T07:45:21;11.20;;;9.10;;
7142;SDS011;3613;48.902;9.204;2023-09-12T07:47:47;15.03;;;9.60;;
7142;SDS011;3613;48.902;9.204;2023-09-12T07:50:15;14.80;;;9.20;;
7142;SDS011;3613;48.902;9.204;2023-09-12T07:52:41;13.33;;;9.27;;
7142;SDS011;3613;48.902;9.204;2023-09-12T07:55:07;12.43;;;9.23;;
7142;SDS011;3613;48.902;9.204;2023-09-12T07:57:33;15.10;;;9.63;;
7142;SDS011;3613;48.902;9.204;2023-09-12T07:59:59;12.00;;;9.03;;
7142;SDS011;3613;48.902;9.204;2023-09-12T08:02:26;14.43;;;8.33;;
7142;SDS011;3613;48.902;9.204;2023-09-12T08:04:51;11.23;;;8.80;;
7142;SDS011;3613;48.902;9.204;2023-09-12T08:07:18;14.40;;;8.52;;
7142;SDS011;3613;48.902;9.204;2023-09-12T08:09:48;12.73;;;8.98;;
7142;SDS011;3613;48.902;9.204;2023-09-12T08:12:21;13.18;;;8.85;;
7142;SDS011;3613;48.902;9.204;2023-09-12T08:14:50;12.55;;;8.93;;
7142;SDS011;3613;48.902;9.204;2023-09-12T08:17:16;12.48;;;9.10;;
7142;SDS011;3613;48.902;9.204;2023-09-12T08:19:42;11.25;;;8.88;;
7142;SDS011;3613;48.902;9.204;2023-09-12T08:22:08;11.88;;;8.50;;
7142;SDS011;3613;48.902;9.204;2023-09-12T08:24:35;12.75;;;9.52;;
7142;SDS011;3613;48.902;9.204;2023-09-12T08:27:02;13.48;;;9.35;;
7142;SDS011;3613;48.902;9.204;2023-09-12T08:29:28;10.90;;;8.80;;
7142;SDS011;3613;48.902;9.204;2023-09-12T08:31:54;11.00;;;8.73;;
7142;SDS011;3613;48.902;9.204;2023-09-12T08:34:20;12.63;;;9.20;;
7142;SDS011;3613;48.902;9.204;2023-09-12T08:36:46;10.63;;;7.90;;
7142;SDS011;3613;48.902;9.204;2023-09-12T08:39:14;13.82;;;9.05;;
7142;SDS011;3613;48.902;9.204;2023-09-12T08:41:43;14.70;;;8.93;;
7142;SDS011;3613;48.902;9.204;2023-09-12T08:44:11;17.17;;;8.97;;
7142;SDS011;3613;48.902;9.204;2023-09-12T08:46:37;15.60;;;9.77;;
7142;SDS011;3613;48.902;9.204;2023-09-12T08:49:07;16.07;;;9.53;;
7142;SDS011;3613;48.902;9.204;2023-09-12T08:51:34;14.37;;;9.17;;
7142;SDS011;3613;48.902;9.204;2023-09-12T08:54:06;16.67;;;9.33;;
7142;SDS011;3613;48.902;9.204;2023-09-12T08:56:32;10.70;;;9.00;;
7142;SDS011;3613;48.902;9.204;2023-09-12T08:59:01;12.67;;;8.30;;
7142;SDS011;3613;48.902;9.204;2023-09-12T09:01:27;15.07;;;9.45;;
7142;SDS011;3613;48.902;9.204;2023-09-12T09:03:56;15.00;;;9.48;;
7142;SDS011;3613;48.902;9.204;2023-09-12T09:06:24;11.40;;;8.98;;
7142;SDS011;3613;48.902;9.204;2023-09-12T09:08:55;11.73;;;8.25;;
7142;SDS011;3613;48.902;9.204;2023-09-12T09:11:21;14.65;;;9.00;;
7142;SDS011;3613;48.902;9.204;2023-09-12T09:13:52;13.15;;;9.27;;
7142;SDS011;3613;48.902;9.204;2023-09-12T09:16:18;12.13;;;9.38;;
7142;SDS011;3613;48.902;9.204;2023-09-12T09:18:52;11.55;;;7.78;;
7142;SDS011;3613;48.902;9.204;2023-09-12T09:21:20;8.70;;;7.40;;
7142;SDS011;3613;48.902;9.204;2023-09-12T09:23:51;14.05;;;8.80;;
7142;SDS011;3613;48.902;9.204;2023-09-12T09:26:18;10.82;;;7.78;;
7142;SDS011;3613;48.902;9.204;2023-09-12T09:28:44;12.55;;;8.65;;
7142;SDS011;3613;48.902;9.204;2023-09-12T09:31:11;15.60;;;8.85;;
7142;SDS011;3613;48.902;9.204;2023-09-12T09:33:37;10.73;;;7.68;;
7142;SDS011;3613;48.902;9.204;2023-09-12T09:36:05;9.95;;;8.23;;
7142;SDS011;3613;48.902;9.204;2023-09-12T09:38:32;10.57;;;7.70;;
7142;SDS011;3613;48.902;9.204;2023-09-12T09:41:00;12.70;;;7.88;;
7142;SDS011;3613;48.902;9.204;2023-09-12T09:43:31;9.52;;;7.35;;
7142;SDS011;3613;48.902;9.204;2023-09-12T09:45:59;12.68;;;7.85;;
7142;SDS011;3613;48.902;9.204;2023-09-12T09:48:25;12.18;;;7.95;;
7142;SDS011;3613;48.902;9.204;2023-09-12T09:50:59;10.18;;;7.70;;
7142;SDS011;3613;48.902;9.204;2023-09-12T09:53:31;10.93;;;8.05;;
7142;SDS011;3613;48.902;9.204;2023-09-12T09:56:07;11.93;;;7.85;;
7142;SDS011;3613;48.902;9.204;2023-09-12T09:58:37;9.02;;;7.90;;
7142;SDS011;3613;48.902;9.204;2023-09-12T10:01:20;11.80;;;8.38;;
7142;SDS011;3613;48.902;9.204;2023-09-12T10:03:55;13.68;;;9.07;;
7142;SDS011;3613;48.902;9.204;2023-09-12T10:06:23;11.88;;;8.27;;
7142;SDS011;3613;48.902;9.204;2023-09-12T10:08:52;12.40;;;7.97;;
7142;SDS011;3613;48.902;9.204;2023-09-12T10:11:21;11.45;;;7.93;;
7142;SDS011;3613;48.902;9.204;2023-09-12T10:13:55;11.48;;;7.95;;
7142;SDS011;3613;48.902;9.204;2023-09-12T10:16:25;9.82;;;7.93;;
7142;SDS011;3613;48.902;9.204;2023-09-12T10:24:37;13.45;;;7.65;;
7142;SDS011;3613;48.902;9.204;2023-09-12T10:27:05;11.25;;;7.30;;
7142;SDS011;3613;48.902;9.204;2023-09-12T10:29:36;11.57;;;8.05;;
7142;SDS011;3613;48.902;9.204;2023-09-12T10:32:02;11.02;;;7.78;;
7142;SDS011;3613;48.902;9.204;2023-09-12T10:34:27;11.13;;;8.10;;
7142;SDS011;3613;48.902;9.204;2023-09-12T10:36:59;11.23;;;7.22;;
7142;SDS011;3613;48.902;9.204;2023-09-12T10:39:25;10.20;;;7.47;;
7142;SDS011;3613;48.902;9.204;2023-09-12T10:41:55;10.35;;;7.75;;
7142;SDS011;3613;48.902;9.204;2023-09-12T10:44:28;11.27;;;7.90;;
7142;SDS011;3613;48.902;9.204;2023-09-12T10:47:00;9.95;;;7.28;;
7142;SDS011;3613;48.902;9.204;2023-09-12T10:49:28;14.55;;;7.60;;
7142;SDS011;3613;48.902;9.204;2023-09-12T10:51:54;9.10;;;7.45;;
7142;SDS011;3613;48.902;9.204;2023-09-12T10:54:39;10.60;;;8.07;;
7142;SDS011;3613;48.902;9.204;2023-09-12T10:57:06;9.90;;;7.47;;
7142;SDS011;3613;48.902;9.204;2023-09-12T10:59:31;8.50;;;6.97;;
7142;SDS011;3613;48.902;9.204;2023-09-12T11:05:00;11.13;;;7.45;;
7142;SDS011;3613;48.902;9.204;2023-09-12T11:07:54;9.73;;;7.32;;
7142;SDS011;3613;48.902;9.204;2023-09-12T11:10:25;12.23;;;7.60;;
7142;SDS011;3613;48.902;9.204;2023-09-12T11:12:52;9.48;;;7.43;;
7142;SDS011;3613;48.902;9.204;2023-09-12T11:15:23;10.25;;;7.25;;
7142;SDS011;3613;48.902;9.204;2023-09-12T11:18:11;10.77;;;7.15;;
7142;SDS011;3613;48.902;9.204;2023-09-12T11:20:49;8.25;;;6.72;;
7142;SDS011;3613;48.902;9.204;2023-09-12T11:23:16;11.50;;;6.78;;
7142;SDS011;3613;48.902;9.204;2023-09-12T11:25:41;7.97;;;6.55;;
7142;SDS011;3613;48.902;9.204;2023-09-12T11:28:10;7.45;;;6.65;;
7142;SDS011;3613;48.902;9.204;2023-09-12T11:30:38;8.73;;;6.65;;
7142;SDS011;3613;48.902;9.204;2023-09-12T11:33:21;8.38;;;6.57;;
7142;SDS011;3613;48.902;9.204;2023-09-12T11:35:51;12.15;;;7.32;;
7142;SDS011;3613;48.902;9.204;2023-09-12T11:38:26;8.95;;;6.85;;
7142;SDS011;3613;48.902;9.204;2023-09-12T11:40:56;11.80;;;7.30;;
7142;SDS011;3613;48.902;9.204;2023-09-12T11:43:23;7.53;;;6.72;;
7142;SDS011;3613;48.902;9.204;2023-09-12T11:45:50;8.82;;;7.25;;
7142;SDS011;3613;48.902;9.204;2023-09-12T11:48:17;10.93;;;6.88;;
7142;SDS011;3613;48.902;9.204;2023-09-12T11:50:53;9.07;;;6.90;;
7142;SDS011;3613;48.902;9.204;2023-09-12T11:53:27;10.57;;;6.60;;
7142;SDS011;3613;48.902;9.204;2023-09-12T11:55:59;9.02;;;7.38;;
7142;SDS011;3613;48.902;9.204;2023-09-12T11:58:25;11.98;;;7.40;;
7142;SDS011;3613;48.902;9.204;2023-09-12T12:00:55;8.48;;;6.85;;
7142;SDS011;3613;48.902;9.204;2023-09-12T12:03:22;11.00;;;7.50;;
7142;SDS011;3613;48.902;9.204;2023-09-12T12:05:52;8.07;;;7.28;;
7142;SDS011;3613;48.902;9.204;2023-09-12T12:08:21;11.32;;;6.47;;
7142;SDS011;3613;48.902;9.204;2023-09-12T12:10:51;10.88;;;7.13;;
7142;SDS011;3613;48.902;9.204;2023-09-12T12:13:18;10.43;;;7.00;;
7142;SDS011;3613;48.902;9.204;2023-09-12T12:15:46;9.18;;;7.28;;
7142;SDS011;3613;48.902;9.204;2023-09-12T12:18:12;8.35;;;7.32;;
7142;SDS011;3613;48.902;9.204;2023-09-12T12:20:38;7.80;;;6.03;;
7142;SDS011;3613;48.902;9.204;2023-09-12T12:23:06;9.15;;;7.10;;
7142;SDS011;3613;48.902;9.204;2023-09-12T12:25:33;8.40;;;6.45;;
7142;SDS011;3613;48.902;9.204;2023-09-12T12:28:02;11.18;;;6.60;;
7142;SDS011;3613;48.902;9.204;2023-09-12T12:30:35;8.25;;;6.72;;
7142;SDS011;3613;48.902;9.204;2023-09-12T12:33:02;7.25;;;6.40;;
7142;SDS011;3613;48.902;9.204;2023-09-12T12:35:34;6.82;;;6.00;;
7142;SDS011;3613;48.902;9.204;2023-09-12T12:38:02;8.40;;;6.63;;
7142;SDS011;3613;48.902;9.204;2023-09-12T12:40:28;7.38;;;6.63;;
7142;SDS011;3613;48.902;9.204;2023-09-12T12:42:53;8.10;;;7.20;;
7142;SDS011;3613;48.902;9.204;2023-09-12T12:45:20;8.10;;;6.55;;
7142;SDS011;3613;48.902;9.204;2023-09-12T12:47:54;8.45;;;6.95;;
7142;SDS011;3613;48.902;9.204;2023-09-12T12:50:23;8.55;;;7.05;;
7142;SDS011;3613;48.902;9.204;2023-09-12T12:52:52;9.52;;;7.03;;
7142;SDS011;3613;48.902;9.204;2023-09-12T12:55:17;10.13;;;7.10;;
7142;SDS011;3613;48.902;9.204;2023-09-12T12:57:48;9.07;;;6.63;;
7142;SDS011;3613;48.902;9.204;2023-09-12T13:00:14;7.05;;;6.35;;
7142;SDS011;3613;48.902;9.204;2023-09-12T13:02:41;10.52;;;6.80;;
7142;SDS011;3613;48.902;9.204;2023-09-12T13:05:27;9.35;;;6.78;;
7142;SDS011;3613;48.902;9.204;2023-09-12T13:07:54;7.78;;;7.03;;
7142;SDS011;3613;48.902;9.204;2023-09-12T13:10:20;11.88;;;7.32;;
7142;SDS011;3613;48.902;9.204;2023-09-12T13:12:46;9.52;;;6.93;;
7142;SDS011;3613;48.902;9.204;2023-09-12T13:15:12;9.13;;;7.25;;
7142;SDS011;3613;48.902;9.204;2023-09-12T13:17:38;8.75;;;6.57;;
7142;SDS011;3613;48.902;9.204;2023-09-12T13:20:07;11.10;;;7.70;;
7142;SDS011;3613;48.902;9.204;2023-09-12T13:22:34;9.05;;;7.22;;
7142;SDS011;3613;48.902;9.204;2023-09-12T13:25:00;9.65;;;6.80;;
7142;SDS011;3613;48.902;9.204;2023-09-12T13:27:28;9.50;;;7.15;;
7142;SDS011;3613;48.902;9.204;2023-09-12T13:29:54;10.05;;;6.78;;
7142;SDS011;3613;48.902;9.204;2023-09-12T13:32:19;10.05;;;7.00;;
7142;SDS011;3613;48.902;9.204;2023-09-12T13:34:45;8.82;;;6.65;;
7142;SDS011;3613;48.902;9.204;2023-09-12T13:37:11;8.23;;;7.10;;
7142;SDS011;3613;48.902;9.204;2023-09-12T13:39:36;15.82;;;7.55;;
7142;SDS011;3613;48.902;9.204;2023-09-12T13:42:02;9.05;;;7.68;;
7142;SDS011;3613;48.902;9.204;2023-09-12T13:44:33;9.57;;;7.47;;
7142;SDS011;3613;48.902;9.204;2023-09-12T13:46:58;12.35;;;7.07;;
7142;SDS011;3613;48.902;9.204;2023-09-12T13:49:24;8.30;;;7.40;;
7142;SDS011;3613;48.902;9.204;2023-09-12T13:51:50;11.77;;;7.60;;
7142;SDS011;3613;48.902;9.204;2023-09-12T13:54:18;9.57;;;7.82;;
7142;SDS011;3613;48.902;9.204;2023-09-12T13:56:46;12.52;;;7.78;;
7142;SDS011;3613;48.902;9.204;2023-09-12T13:59:14;8.75;;;7.65;;
7142;SDS011;3613;48.902;9.204;2023-09-12T14:01:45;9.63;;;7.97;;
7142;SDS011;3613;48.902;9.204;2023-09-12T14:04:13;12.27;;;7.80;;
7142;SDS011;3613;48.902;9.204;2023-09-12T14:06:42;8.37;;;7.57;;
7142;SDS011;3613;48.902;9.204;2023-09-12T14:09:10;12.53;;;7.50;;
7142;SDS011;3613;48.902;9.204;2023-09-12T14:11:35;12.03;;;7.83;;
7142;SDS011;3613;48.902;9.204;2023-09-12T14:14:02;8.63;;;7.07;;
7142;SDS011;3613;48.902;9.204;2023-09-12T14:16:30;9.60;;;7.10;;
7142;SDS011;3613;48.902;9.204;2023-09-12T14:18:56;8.87;;;7.23;;
7142;SDS011;3613;48.902;9.204;2023-09-12T14:21:21;8.60;;;7.00;;
7142;SDS011;3613;48.902;9.204;2023-09-12T14:23:52;13.00;;;7.40;;
7142;SDS011;3613;48.902;9.204;2023-09-12T14:26:19;8.73;;;7.27;;
7142;SDS011;3613;48.902;9.204;2023-09-12T14:28:45;9.23;;;7.23;;
7142;SDS011;3613;48.902;9.204;2023-09-12T14:31:11;10.47;;;7.03;;
7142;SDS011;3613;48.902;9.204;2023-09-12T14:33:39;7.40;;;6.70;;
7142;SDS011;3613;48.902;9.204;2023-09-12T14:36:08;11.03;;;7.03;;
7142;SDS011;3613;48.902;9.204;2023-09-12T14:38:34;8.20;;;6.70;;
7142;SDS011;3613;48.902;9.204;2023-09-12T14:41:00;8.47;;;7.23;;
7142;SDS011;3613;48.902;9.204;2023-09-12T14:43:28;7.90;;;7.10;;
7142;SDS011;3613;48.902;9.204;2023-09-12T14:45:56;10.00;;;7.07;;
7142;SDS011;3613;48.902;9.204;2023-09-12T14:48:25;8.23;;;7.43;;
7142;SDS011;3613;48.902;9.204;2023-09-12T14:50:51;9.17;;;7.67;;
7142;SDS011;3613;48.902;9.204;2023-09-12T14:53:16;11.97;;;7.00;;
7142;SDS011;3613;48.902;9.204;2023-09-12T14:55:42;11.23;;;7.07;;
7142;SDS011;3613;48.902;9.204;2023-09-12T14:58:10;8.00;;;7.10;;
7142;SDS011;3613;48.902;9.204;2023-09-12T15:00:36;9.63;;;7.23;;
7142;SDS011;3613;48.902;9.204;2023-09-12T15:03:03;8.77;;;6.57;;
7142;SDS011;3613;48.902;9.204;2023-09-12T15:05:29;8.53;;;6.93;;
7142;SDS011;3613;48.902;9.204;2023-09-12T15:07:54;9.90;;;8.13;;
7142;SDS011;3613;48.902;9.204;2023-09-12T15:10:22;13.53;;;7.57;;
7142;SDS011;3613;48.902;9.204;2023-09-12T15:12:48;8.37;;;6.53;;
7142;SDS011;3613;48.902;9.204;2023-09-12T15:15:14;10.27;;;6.53;;